Language: 


Des rapports , des résumés tant et plus, au choix de chacun....


Données statistiques de la station
Quotidien Rapport Janvier 5, 2017 Unités:  Anglais    Métrique   les deux
« Précédent Jour
Suivant Jour »
Quotidien Hebdomadaire Mensuel Annuel Actuel
  Haut: Bas: Moyen:
Température: 45.9 °F 28.6 °F 37.6 °F
Pt de rosée: 39.7 °F 26.4 °F 34.9 °F
Humidité: 98 % 75 % 91 %
Vitesse du vent: 18.3 mph 0 mph 2.8 mph
Rafales: 18.3 mph - -
Vent:- - SSW
Pression: 30.6 in 30.2 in -
Précipitation: 0 in    
Historical Graphs
 
 
Données statistiques pour Janvier 5, 2017
Heure Température Point de rosée Pression Vent Vitesse du vent Refales Humidité Pluie (taux horaire)
00:09 36.9 °F 36 °F 30.3 in NNE 0.9 mph 5.4 mph 96 % 0 in
00:19 37.6 °F 36.7 °F 30.3 in WNW 1.1 mph 5.6 mph 97 % 0 in
00:29 37.6 °F 36.9 °F 30.3 in WNW 1.6 mph 6.5 mph 97 % 0 in
00:39 37.6 °F 36.9 °F 30.3 in WNW 3.6 mph 6 mph 97 % 0 in
00:49 37.8 °F 37 °F 30.3 in NNW 2.9 mph 6.5 mph 97 % 0 in
00:59 37.9 °F 37.6 °F 30.2 in NNW 1.3 mph 6 mph 98 % 0 in
01:09 37.9 °F 37.2 °F 30.3 in NNW 7.4 mph 8.5 mph 97 % 0 in
01:19 38.1 °F 37.4 °F 30.3 in North 2.9 mph 7.6 mph 97 % 0 in
01:29 38.1 °F 37.4 °F 30.3 in NNE 2 mph 9.6 mph 97 % 0 in
01:39 37.9 °F 37.2 °F 30.3 in WNW 2 mph 12.5 mph 97 % 0 in
01:49 38.1 °F 37.4 °F 30.3 in WNW 4.3 mph 7.8 mph 97 % 0 in
01:59 38.5 °F 37.6 °F 30.3 in North 4 mph 7.6 mph 97 % 0 in
02:09 38.5 °F 37.6 °F 30.3 in NNW 2.9 mph 4 mph 97 % 0 in
02:19 37.9 °F 37.2 °F 30.3 in NNW 2 mph 3.6 mph 97 % 0 in
02:29 37.9 °F 37.2 °F 30.3 in NNW 3.8 mph 3.8 mph 97 % 0 in
02:39 37.9 °F 37.2 °F 30.3 in NNW 3.8 mph 3.8 mph 97 % 0 in
02:49 37.9 °F 37.2 °F 30.3 in NNW 5.8 mph 6.9 mph 97 % 0 in
02:59 38.5 °F 37.8 °F 30.3 in NNE 4 mph 10.3 mph 97 % 0 in
03:09 38.5 °F 37.8 °F 30.3 in NNE 2.9 mph 5.4 mph 97 % 0 in
03:19 38.8 °F 38.1 °F 30.3 in North 6.3 mph 6.3 mph 97 % 0 in
03:29 39 °F 37.9 °F 30.3 in NNW 5.4 mph 8.7 mph 96 % 0 in
03:39 38.7 °F 37.8 °F 30.3 in Calm   5.4 mph 96 % 0 in
03:49 38.5 °F 37.2 °F 30.3 in Calm   4.7 mph 96 % 0 in
03:59 37.9 °F 37 °F 30.3 in WNW 2 mph 5.8 mph 96 % 0 in
04:09 37.8 °F 36.9 °F 30.3 in NNW 4.3 mph 4.3 mph 96 % 0 in
04:19 37.9 °F 37.2 °F 30.3 in WNW 2.5 mph 5.6 mph 97 % 0 in
04:29 37.9 °F 37.2 °F 30.3 in NNE 2.2 mph 6 mph 97 % 0 in
04:39 37.8 °F 36.9 °F 30.3 in North 1.3 mph 3.8 mph 96 % 0 in
04:49 37.8 °F 36.9 °F 30.3 in NNE 3.4 mph 5.4 mph 96 % 0 in
04:59 37.6 °F 36.7 °F 30.3 in WNW 2.5 mph 6.3 mph 96 % 0 in
05:09 37.6 °F 36.7 °F 30.3 in WNW 4 mph 6.5 mph 96 % 0 in
05:19 37.8 °F 37 °F 30.3 in WNW 1.1 mph 5.8 mph 97 % 0 in
05:29 37.8 °F 37 °F 30.3 in WNW 2.9 mph 6.5 mph 97 % 0 in
05:39 37.8 °F 37 °F 30.3 in NNE 2.5 mph 6 mph 97 % 0 in
05:49 37.6 °F 36.9 °F 30.3 in WNW 1.1 mph 5.4 mph 97 % 0 in
05:59 37.2 °F 36.3 °F 30.3 in NNW 3.1 mph 7.2 mph 96 % 0 in
06:09 37.6 °F 36.7 °F 30.3 in NNW 3.1 mph 6.5 mph 97 % 0 in
06:19 37.2 °F 36.5 °F 30.3 in North 3.1 mph 6.3 mph 97 % 0 in
06:29 37.2 °F 36.5 °F 30.3 in North 5.6 mph 5.6 mph 97 % 0 in
06:39 37.6 °F 36.7 °F 30.3 in West 2.5 mph 6.5 mph 97 % 0 in
06:49 37.6 °F 36.7 °F 30.3 in WSW 3.1 mph 6 mph 97 % 0 in
06:59 37.6 °F 36.3 °F 30.3 in NW 3.8 mph 6.3 mph 96 % 0 in
07:09 37.6 °F 36.3 °F 30.4 in West 5.4 mph 8.1 mph 96 % 0 in
07:19 37.6 °F 36.7 °F 30.4 in NNW 2.9 mph 8.1 mph 96 % 0 in
07:29 37.8 °F 36.9 °F 30.4 in NNW 4.3 mph 7.8 mph 96 % 0 in
07:39 37.6 °F 36.7 °F 30.4 in West 1.1 mph 4.7 mph 96 % 0 in
07:49 37.2 °F 36.3 °F 30.4 in North 2.5 mph 5.6 mph 96 % 0 in
07:59 37 °F 36.1 °F 30.4 in WNW 4 mph 5.4 mph 96 % 0 in
08:09 37 °F 36.1 °F 30.4 in WNW 2.9 mph 5.4 mph 96 % 0 in
08:19 36.9 °F 36 °F 30.4 in NNW 2.7 mph 5.6 mph 96 % 0 in
08:29 36.9 °F 35.8 °F 30.4 in WNW 2.5 mph 4.3 mph 96 % 0 in
08:39 36.9 °F 35.8 °F 30.4 in North 2.2 mph 5.4 mph 96 % 0 in
08:49 36.7 °F 35.6 °F 30.4 in Calm   3.4 mph 96 % 0 in
08:59 36.9 °F 36 °F 30.4 in WNW 2.9 mph 6 mph 97 % 0 in
09:09 37 °F 36.3 °F 30.4 in WNW 7.4 mph 7.4 mph 97 % 0 in
09:19 37.2 °F 36.3 °F 30.4 in NNE 2.7 mph 8.7 mph 96 % 0 in
09:29 36.3 °F 35.1 °F 30.4 in Calm   6 mph 95 % 0 in
09:39 36.1 °F 34.9 °F 30.4 in NNE 2.7 mph 4 mph 95 % 0 in
09:49 36 °F 34.5 °F 30.4 in NNW 2.7 mph 3.1 mph 95 % 0 in
09:59 36.7 °F 35.6 °F 30.4 in NW 2.2 mph 4 mph 96 % 0 in
10:09 37.2 °F 36.5 °F 30.4 in NNW 4.3 mph 6 mph 97 % 0 in
10:19 38.1 °F 37.4 °F 30.4 in Calm   4.3 mph 97 % 0 in
10:29 38.7 °F 37.9 °F 30.4 in North 3.4 mph 5.4 mph 97 % 0 in
10:39 40.1 °F 39 °F 30.4 in NNW 1.3 mph 13.2 mph 96 % 0 in
10:49 40.6 °F 39 °F 30.4 in NNW 4.3 mph 12.1 mph 94 % 0 in
11:09 41.9 °F 39.7 °F 30.4 in North 6 mph 7.6 mph 92 % 0 in
11:19 42.4 °F 39.7 °F 30.4 in NNE 7.8 mph 7.8 mph 90 % 0 in
11:29 43 °F 39.6 °F 30.4 in North 3.6 mph 8.7 mph 88 % 0 in
11:39 43.3 °F 39.7 °F 30.4 in NNE 2.7 mph 7.4 mph 87 % 0 in
11:49 43.5 °F 39.6 °F 30.4 in NNE 6.3 mph 8.5 mph 86 % 0 in
11:59 43.5 °F 39.4 °F 30.4 in NNW 4.3 mph 6.5 mph 85 % 0 in
12:09 43.9 °F 39.4 °F 30.4 in NNE 8.1 mph 8.5 mph 84 % 0 in
12:19 44.1 °F 39.6 °F 30.4 in ENE 5.6 mph 8.1 mph 84 % 0 in
12:29 44.4 °F 39.4 °F 30.4 in NNE 5.4 mph 17.9 mph 82 % 0 in
12:39 44.4 °F 39 °F 30.4 in North 3.6 mph 7.8 mph 81 % 0 in
12:49 44.8 °F 38.8 °F 30.4 in North 6.9 mph 7.6 mph 80 % 0 in
12:59 45 °F 39 °F 30.4 in NE 6.5 mph 7.2 mph 80 % 0 in
13:09 45 °F 38.5 °F 30.5 in NE 4.3 mph 8.5 mph 78 % 0 in
13:19 45.1 °F 39 °F 30.5 in NE 3.8 mph 5.6 mph 79 % 0 in
13:29 45.3 °F 38.8 °F 30.4 in North 5.4 mph 7.2 mph 78 % 0 in
13:39 45.9 °F 39.4 °F 30.4 in NNW 1.1 mph 17.9 mph 78 % 0 in
13:49 45.9 °F 39 °F 30.4 in NW 4.3 mph 5.4 mph 77 % 0 in
14:09 45.1 °F 37.8 °F 30.4 in NNW 3.1 mph 5.4 mph 75 % 0 in
14:19 44.4 °F 37 °F 30.4 in NNE 1.6 mph 4.7 mph 75 % 0 in
14:29 44.1 °F 36.9 °F 30.4 in NNE 0.9 mph 2.9 mph 76 % 0 in
14:39 43.5 °F 37.2 °F 30.4 in NE 1.6 mph 2.9 mph 78 % 0 in
14:49 43.3 °F 36.9 °F 30.4 in NNE 3.8 mph 4.3 mph 78 % 0 in
14:59 43 °F 36.9 °F 30.4 in ENE 2.7 mph 5.4 mph 79 % 0 in
15:09 42.4 °F 36 °F 30.4 in NE 4 mph 4.7 mph 78 % 0 in
15:19 41.9 °F 35.8 °F 30.4 in NE 3.4 mph 4 mph 79 % 0 in
15:29 41.9 °F 36.5 °F 30.5 in East 4 mph 4 mph 81 % 0 in
15:39 42.1 °F 36.7 °F 30.5 in Calm   4.3 mph 81 % 0 in
15:49 41.9 °F 36.9 °F 30.5 in NE 3.1 mph 3.4 mph 82 % 0 in
15:59 41.9 °F 36.9 °F 30.5 in NE 4.3 mph 4.3 mph 82 % 0 in
16:09 41.9 °F 36.9 °F 30.5 in NE 2.5 mph 4.3 mph 82 % 0 in
16:19 41.9 °F 36.9 °F 30.5 in NE 3.8 mph 4.5 mph 82 % 0 in
16:29 41.9 °F 36.9 °F 30.5 in ENE 2.5 mph 4.7 mph 82 % 0 in
16:39 41.9 °F 36.9 °F 30.5 in ENE 2.7 mph 3.1 mph 82 % 0 in
16:49 41.9 °F 36.9 °F 30.5 in ENE 3.6 mph 6.9 mph 82 % 0 in
16:59 41.9 °F 36.9 °F 30.5 in ENE 3.8 mph 4.3 mph 82 % 0 in
17:09 41.9 °F 36.9 °F 30.5 in ENE 3.6 mph 4.3 mph 82 % 0 in
17:19 41.9 °F 36.9 °F 30.5 in East 3.4 mph 3.8 mph 82 % 0 in
17:29 37 °F 33.1 °F 30.5 in ENE 2.9 mph 4 mph 85 % 0 in
17:39 36.7 °F 32.5 °F 30.5 in ENE 3.1 mph 4.3 mph 85 % 0 in
17:49 36.1 °F 32 °F 30.5 in Calm   3.8 mph 85 % 0 in
17:59 36 °F 32.2 °F 30.5 in NE 2.7 mph 4.3 mph 86 % 0 in
18:09 35.8 °F 32.2 °F 30.5 in ENE 3.6 mph 4.3 mph 87 % 0 in
18:19 35.4 °F 31.8 °F 30.5 in ENE 0.9 mph 3.6 mph 87 % 0 in
18:29 35.2 °F 31.6 °F 30.5 in ENE 18.3 mph 18.3 mph 87 % 0 in
18:39 35.1 °F 31.5 °F 30.5 in East 2.5 mph 3.8 mph 87 % 0 in
18:49 34.5 °F 30.9 °F 30.5 in Calm   2.7 mph 87 % 0 in
18:59 34.3 °F 30.7 °F 30.5 in Calm   17.9 mph 87 % 0 in
19:09 33.8 °F 30.4 °F 30.6 in Calm     87 % 0 in
19:19 33.6 °F 30.4 °F 30.6 in Calm   1.6 mph 88 % 0 in
19:29 33.3 °F 30 °F 30.6 in Calm     88 % 0 in
19:39 33.3 °F 30 °F 30.5 in NNE 2.9 mph 2.9 mph 88 % 0 in
19:49 32.5 °F 29.5 °F 30.5 in Calm   2.9 mph 88 % 0 in
19:59 32.2 °F 29.3 °F 30.6 in NNE 2.2 mph 2.9 mph 89 % 0 in
20:09 32.2 °F 29.3 °F 30.5 in North 2.9 mph 2.9 mph 89 % 0 in
20:19 32.2 °F 29.3 °F 30.5 in Calm   3.1 mph 89 % 0 in
20:29 32.2 °F 29.3 °F 30.6 in Calm   1.6 mph 89 % 0 in
20:39 31.1 °F 28.6 °F 30.6 in Calm   2.2 mph 90 % 0 in
20:49 30.7 °F 28.2 °F 30.6 in Calm   2.5 mph 90 % 0 in
20:59 30.7 °F 28.2 °F 30.6 in Calm   3.1 mph 90 % 0 in
21:09 30.7 °F 28.4 °F 30.6 in NE 2.7 mph 3.4 mph 91 % 0 in
21:19 30.6 °F 28.6 °F 30.6 in NE 2.2 mph 3.1 mph 92 % 0 in
21:29 30.2 °F 28.2 °F 30.6 in Calm   2.5 mph 92 % 0 in
21:39 30.2 °F 28.2 °F 30.6 in NE 2 mph 2.5 mph 92 % 0 in
21:49 30 °F 28 °F 30.6 in Calm   2 mph 92 % 0 in
21:59 30 °F 28.2 °F 30.6 in NE 1.3 mph 2.7 mph 93 % 0 in
22:09 29.8 °F 27.9 °F 30.6 in NE 2.9 mph 2.9 mph 92 % 0 in
22:19 29.5 °F 27.5 °F 30.6 in Calm   2.9 mph 92 % 0 in
22:29 29.5 °F 27.1 °F 30.6 in Calm   2.7 mph 91 % 0 in
22:39 28.9 °F 26.8 °F 30.6 in Calm     91 % 0 in
22:49 28.6 °F 26.4 °F 30.6 in Calm     91 % 0 in
22:59 28.6 °F 26.4 °F 30.6 in Calm   1.6 mph 92 % 0 in
23:09 28.6 °F 26.6 °F 30.6 in Calm     92 % 0 in
23:19 28.6 °F 26.6 °F 30.6 in NE 2.5 mph 2.5 mph 92 % 0 in
23:29 28.6 °F 26.6 °F 30.6 in NE 2.5 mph 3.1 mph 92 % 0 in
23:39 28.6 °F 27 °F 30.6 in ENE 2.5 mph 2.9 mph 93 % 0 in
23:49 28.6 °F 27 °F 30.6 in ENE 2.5 mph 2.5 mph 93 % 0 in
23:59 28.6 °F 27 °F 30.6 in Calm   3.1 mph 93 % 0 in
Le Gheer Warneton
Courtoisie de Weather Underground - 1.5 mb

Mise a jour : 18/12/2017 21:21:12
Généré par Cumulus 1.9.4 (1099)